Time;durP1;ratioP1;P1;durP2;ratioP2;P2;SDS_P1;SDS_P2;PMS_P1;PMS_P2;Temp;Humidity;BMP_temperature;BMP_pressure;BME280_temperature;BME280_humidity;BME280_pressure;Samples;Min_cycle;Max_cycle;Signal;HPM_P1;HPM_P2
2021/08/29 00:00:52;;;;;;;21.98;16.38;;;;;;;17.94;100.00;92511.66;5071340;28;20484;-82
2021/08/29 00:03:19;;;;;;;19.25;15.63;;;;;;;17.87;100.00;92504.94;5071379;28;20048;-82
2021/08/29 00:05:46;;;;;;;19.35;15.88;;;;;;;17.95;100.00;92513.97;5071665;28;20098;-83
2021/08/29 00:08:13;;;;;;;22.38;17.58;;;;;;;17.65;100.00;92474.22;5071501;28;20048;-83
2021/08/29 00:10:41;;;;;;;22.30;17.23;;;;;;;17.90;100.00;92522.59;5072046;28;20062;-82
2021/08/29 00:13:07;;;;;;;22.27;17.50;;;;;;;17.40;100.00;92442.19;5072174;28;20048;-82
2021/08/29 00:15:34;;;;;;;26.65;19.17;;;;;;;17.84;100.00;92495.09;5072180;28;20052;-82
2021/08/29 00:18:01;;;;;;;26.58;19.48;;;;;;;17.92;100.00;92506.75;5071409;28;20040;-83
2021/08/29 00:20:28;;;;;;;28.40;19.15;;;;;;;17.89;100.00;92504.69;5071364;28;20040;-83
2021/08/29 00:22:55;;;;;;;27.50;19.50;;;;;;;17.46;100.00;92450.72;5070871;28;20063;-83
2021/08/29 00:25:21;;;;;;;26.00;18.85;;;;;;;17.57;100.00;92462.59;5070911;28;20102;-83
2021/08/29 00:27:50;;;;;;;29.08;20.75;;;;;;;17.59;100.00;92457.88;5071297;28;20048;-83
2021/08/29 00:30:16;;;;;;;29.52;19.52;;;;;;;17.80;100.00;92486.31;5071114;28;20048;-83
2021/08/29 00:32:43;;;;;;;26.55;19.95;;;;;;;17.90;100.00;92499.22;5071170;28;20052;-83
2021/08/29 00:35:10;;;;;;;29.30;20.30;;;;;;;17.82;100.00;92488.63;5070900;28;20049;-83
2021/08/29 00:37:37;;;;;;;29.13;20.27;;;;;;;17.33;100.00;92420.97;5070943;28;20052;-83
2021/08/29 00:40:05;;;;;;;30.65;21.75;;;;;;;17.52;100.00;92454.84;5071060;28;20129;-83
2021/08/29 00:42:32;;;;;;;29.73;20.92;;;;;;;17.89;100.00;92507.28;5070839;28;20045;-83
2021/08/29 00:45:00;;;;;;;27.90;20.73;;;;;;;17.80;100.00;92494.09;5071011;28;20060;-83
2021/08/29 00:47:27;;;;;;;27.02;20.02;;;;;;;17.77;100.00;92502.41;5070693;28;20044;-83
2021/08/29 00:49:54;;;;;;;26.67;20.38;;;;;;;17.23;100.00;92451.13;5071143;28;20048;-84
2021/08/29 00:52:21;;;;;;;27.42;19.13;;;;;;;16.96;100.00;92472.28;5070702;28;20056;-83
2021/08/29 00:54:48;;;;;;;25.95;18.75;;;;;;;16.87;100.00;92508.38;5070381;28;20075;-83
2021/08/29 00:57:15;;;;;;;25.80;19.02;;;;;;;16.53;100.00;92450.13;5071312;28;20049;-83
2021/08/29 00:59:43;;;;;;;23.80;18.42;;;;;;;16.65;100.00;92452.44;5070969;28;20064;-83
2021/08/29 01:02:13;;;;;;;21.63;17.25;;;;;;;16.79;100.00;92457.81;5071003;28;20056;-83
2021/08/29 01:04:47;;;;;;;22.50;17.67;;;;;;;17.31;100.00;92517.25;5071229;28;20783;-83
2021/08/29 01:07:23;;;;;;;20.55;17.25;;;;;;;17.01;100.00;92461.09;5071037;28;20048;-84
2021/08/29 01:09:54;;;;;;;23.42;19.40;;;;;;;17.16;100.00;92471.41;5070487;28;20136;-84
2021/08/29 01:12:23;;;;;;;27.73;20.90;;;;;;;17.13;100.00;92466.75;5070360;28;20053;-84
2021/08/29 01:14:52;;;;;;;27.95;20.60;;;;;;;17.65;100.00;92513.16;5070170;28;20055;-84
2021/08/29 01:17:26;;;;;;;24.15;19.38;;;;;;;17.75;100.00;92525.31;5070188;28;20408;-83
2021/08/29 01:20:02;;;;;;;27.33;21.38;;;;;;;17.79;100.00;92530.72;5069838;28;20048;-84
2021/08/29 01:22:30;;;;;;;30.00;21.77;;;;;;;17.81;100.00;92536.44;5069781;28;20052;-84
2021/08/29 01:24:57;;;;;;;27.67;20.60;;;;;;;17.59;100.00;92501.28;5069816;28;20525;-83
2021/08/29 01:27:30;;;;;;;26.52;19.10;;;;;;;17.62;100.00;92524.09;5070070;28;20459;-82
2021/08/29 01:30:00;;;;;;;26.90;20.13;;;;;;;17.80;100.00;92537.47;5069793;28;20052;-81
2021/08/29 01:32:27;;;;;;;30.45;22.08;;;;;;;17.74;100.00;92540.09;5069649;28;20052;-82
2021/08/29 01:34:54;;;;;;;27.88;20.73;;;;;;;17.69;100.00;92523.78;5069757;28;20048;-80
2021/08/29 01:37:21;;;;;;;27.77;22.10;;;;;;;17.56;100.00;92519.97;5070805;28;20053;-81
2021/08/29 01:39:50;;;;;;;26.50;19.98;;;;;;;17.63;100.00;92529.03;5070532;28;20057;-82
2021/08/29 01:42:19;;;;;;;26.75;20.58;;;;;;;17.56;100.00;92512.97;5070172;28;20079;-82
2021/08/29 01:44:47;;;;;;;27.13;19.60;;;;;;;17.68;100.00;92525.59;5070319;28;20549;-81
2021/08/29 01:47:18;;;;;;;24.13;18.85;;;;;;;17.37;100.00;92541.38;5069545;28;20044;-81
2021/08/29 01:49:45;;;;;;;27.83;19.85;;;;;;;17.41;100.00;92542.38;5069512;28;20045;-81
2021/08/29 01:52:13;;;;;;;23.98;19.25;;;;;;;17.39;100.00;92547.06;5069559;28;20453;-80
2021/08/29 01:54:40;;;;;;;26.65;18.90;;;;;;;17.45;100.00;92527.81;5069423;28;20040;-80
2021/08/29 01:57:12;;;;;;;23.55;18.33;;;;;;;17.52;100.00;92535.31;5069415;28;20048;-80
2021/08/29 01:59:38;;;;;;;25.35;19.63;;;;;;;17.36;100.00;92522.44;5069454;28;20102;-81
2021/08/29 02:02:06;;;;;;;23.98;19.33;;;;;;;17.09;100.00;92526.19;5069659;28;20061;-79
2021/08/29 02:04:35;;;;;;;28.05;21.48;;;;;;;16.74;100.00;92514.09;5069058;28;20098;-79
2021/08/29 02:07:18;;;;;;;49.00;33.60;;;;;;;16.66;100.00;92521.41;5069809;28;20049;-79
2021/08/29 02:09:48;;;;;;;45.08;31.33;;;;;;;16.58;100.00;92519.38;5069282;28;20570;-79
2021/08/29 02:12:15;;;;;;;33.55;26.20;;;;;;;16.40;100.00;92518.09;5068921;28;20056;-82
2021/08/29 02:14:52;;;;;;;34.65;27.25;;;;;;;16.19;100.00;92505.19;5066581;28;20052;-81
2021/08/29 02:17:21;;;;;;;35.90;25.42;;;;;;;16.34;100.00;92522.50;5056335;28;20447;-81
2021/08/29 02:19:53;;;;;;;39.05;26.73;;;;;;;16.25;100.00;92524.84;5048555;28;20455;-81
2021/08/29 02:22:21;;;;;;;36.75;27.42;;;;;;;16.32;100.00;92514.22;5049137;28;20095;-79
2021/08/29 02:24:48;;;;;;;37.35;27.35;;;;;;;16.38;100.00;92505.41;5049438;28;20118;-79
2021/08/29 02:27:17;;;;;;;36.85;27.10;;;;;;;16.62;100.00;92522.22;5049173;28;20919;-79
2021/08/29 02:29:45;;;;;;;37.65;25.83;;;;;;;16.88;100.00;92538.44;5049020;28;20045;-80
2021/08/29 02:32:15;;;;;;;35.78;24.65;;;;;;;17.06;100.00;92550.09;5049488;28;20053;-81
2021/08/29 02:34:42;;;;;;;44.63;26.23;;;;;;;17.15;100.00;92545.13;5049217;28;20139;-81
2021/08/29 02:37:12;;;;;;;39.45;24.38;;;;;;;17.00;100.00;92498.47;5048898;28;20053;-80
2021/08/29 02:39:40;;;;;;;36.08;24.83;;;;;;;17.21;100.00;92520.69;5048960;28;20041;-81
2021/08/29 02:42:09;;;;;;;35.30;25.35;;;;;;;17.13;100.00;92508.25;5049206;28;20055;-81
2021/08/29 02:44:39;;;;;;;34.75;25.95;;;;;;;16.70;100.00;92480.94;5050125;28;20492;-80
2021/08/29 02:47:06;;;;;;;36.63;24.90;;;;;;;16.63;100.00;92500.41;5052894;28;20056;-80
2021/08/29 02:49:35;;;;;;;43.97;26.98;;;;;;;16.45;100.00;92518.09;5053563;28;20082;-80
2021/08/29 02:52:02;;;;;;;37.25;24.42;;;;;;;16.42;100.00;92524.59;5053346;28;20102;-82
2021/08/29 02:54:31;;;;;;;41.80;26.35;;;;;;;16.85;100.00;92553.78;5053175;28;20637;-83
2021/08/29 02:56:59;;;;;;;38.55;25.50;;;;;;;16.94;100.00;92547.75;5053447;28;20049;-82
2021/08/29 02:59:27;;;;;;;32.10;22.02;;;;;;;17.11;100.00;92536.31;5053519;28;20045;-82
2021/08/29 03:01:54;;;;;;;28.65;21.20;;;;;;;17.16;100.00;92528.50;5053445;28;20099;-82
2021/08/29 03:04:21;;;;;;;27.63;20.42;;;;;;;17.24;100.00;92506.41;5053339;28;20136;-80
2021/08/29 03:06:48;;;;;;;24.02;17.73;;;;;;;17.28;100.00;92496.25;5053095;28;20123;-80
2021/08/29 03:09:15;;;;;;;25.90;17.92;;;;;;;17.38;100.00;92529.94;5053088;28;20496;-82
2021/08/29 03:11:43;;;;;;;22.58;15.98;;;;;;;17.47;100.00;92517.97;5052821;28;20118;-81
2021/08/29 03:14:10;;;;;;;19.13;13.48;;;;;;;17.49;100.00;92502.88;5052576;28;20049;-81
2021/08/29 03:16:38;;;;;;;19.55;13.40;;;;;;;17.57;100.00;92513.72;5052375;28;20488;-81
2021/08/29 03:19:05;;;;;;;19.83;13.52;;;;;;;17.62;100.00;92521.50;5052774;28;20045;-81
2021/08/29 03:21:32;;;;;;;16.63;12.35;;;;;;;17.66;100.00;92503.53;5052454;28;20045;-81
2021/08/29 03:24:00;;;;;;;16.77;12.43;;;;;;;17.67;100.00;92516.25;5052620;28;20053;-82
2021/08/29 03:26:27;;;;;;;18.10;12.35;;;;;;;17.70;100.00;92518.34;5052595;28;20041;-81
2021/08/29 03:28:55;;;;;;;17.65;10.77;;;;;;;17.68;100.00;92499.63;5052618;28;20106;-81
2021/08/29 03:31:22;;;;;;;14.30;10.82;;;;;;;17.65;100.00;92495.00;5052411;28;20044;-81
2021/08/29 03:33:52;;;;;;;14.93;11.40;;;;;;;17.72;100.00;92495.44;5052140;28;20045;-81
2021/08/29 03:36:22;;;;;;;12.35;9.90;;;;;;;17.67;100.00;92499.91;5052233;28;20064;-81
2021/08/29 03:38:50;;;;;;;12.98;9.60;;;;;;;17.65;100.00;92496.81;5052238;28;20051;-80
2021/08/29 03:41:18;;;;;;;14.20;9.35;;;;;;;17.63;100.00;92482.28;5052195;28;20049;-81
2021/08/29 03:43:45;;;;;;;11.85;8.93;;;;;;;17.70;100.00;92499.38;5051800;28;20049;-81
2021/08/29 03:46:16;;;;;;;15.82;9.40;;;;;;;17.68;100.00;92507.41;5051963;28;20385;-80
2021/08/29 03:48:43;;;;;;;12.70;9.20;;;;;;;17.61;100.00;92505.16;5052079;28;20049;-80
2021/08/29 03:51:11;;;;;;;12.68;9.13;;;;;;;17.34;100.00;92505.56;5051896;28;20049;-80
2021/08/29 03:53:39;;;;;;;16.73;11.20;;;;;;;17.32;100.00;92513.63;5052189;28;20067;-80
2021/08/29 03:56:07;;;;;;;14.90;11.68;;;;;;;17.35;100.00;92507.91;5051400;28;20049;-81
2021/08/29 03:58:35;;;;;;;16.83;12.27;;;;;;;17.31;100.00;92506.13;5067941;28;20143;-80
2021/08/29 04:01:02;;;;;;;17.52;13.52;;;;;;;17.28;100.00;92511.84;5068608;28;20156;-80
2021/08/29 04:03:31;;;;;;;17.65;12.65;;;;;;;17.35;100.00;92507.91;5071147;28;20045;-81
2021/08/29 04:06:00;;;;;;;18.27;11.10;;;;;;;17.17;100.00;92482.59;5068349;28;20040;-80
2021/08/29 04:08:30;;;;;;;16.73;10.57;;;;;;;17.30;100.00;92513.13;5071561;28;20466;-80
2021/08/29 04:11:00;;;;;;;13.88;10.05;;;;;;;17.31;100.00;92517.25;5071335;28;20139;-80
2021/08/29 04:13:28;;;;;;;14.85;11.10;;;;;;;17.45;100.00;92530.41;5071472;28;20128;-80
2021/08/29 04:15:55;;;;;;;11.82;9.10;;;;;;;17.43;100.00;92537.72;5071360;28;20136;-81
2021/08/29 04:18:23;;;;;;;12.85;9.13;;;;;;;17.39;100.00;92541.13;5071621;28;20048;-80
2021/08/29 04:20:52;;;;;;;10.55;9.25;;;;;;;17.16;100.00;92548.47;5071108;28;20496;-81
2021/08/29 04:23:19;;;;;;;14.07;10.25;;;;;;;17.07;100.00;92549.03;5070985;28;20053;-80
2021/08/29 04:25:47;;;;;;;11.38;9.88;;;;;;;16.99;100.00;92557.34;5071456;28;20049;-80
2021/08/29 04:28:14;;;;;;;11.88;10.63;;;;;;;16.79;100.00;92545.22;5070922;28;20049;-80
2021/08/29 04:30:42;;;;;;;13.23;11.40;;;;;;;16.81;100.00;92549.09;5071019;28;20411;-81
2021/08/29 04:33:08;;;;;;;15.65;12.82;;;;;;;16.93;100.00;92542.84;5071248;28;20086;-80
2021/08/29 04:35:35;;;;;;;15.07;12.32;;;;;;;17.01;100.00;92544.09;5071372;28;20041;-81
2021/08/29 04:38:03;;;;;;;15.20;12.20;;;;;;;16.96;100.00;92550.09;5070847;28;20047;-81
2021/08/29 04:40:32;;;;;;;22.00;14.93;;;;;;;17.01;100.00;92554.47;5070577;28;20053;-81
2021/08/29 04:42:59;;;;;;;19.35;13.95;;;;;;;17.07;100.00;92563.81;5070808;28;20473;-81
2021/08/29 04:45:25;;;;;;;24.65;16.25;;;;;;;17.12;100.00;92557.84;5070776;28;20122;-81
2021/08/29 04:47:52;;;;;;;16.85;14.20;;;;;;;17.15;100.00;92554.72;5070786;28;20093;-81
2021/08/29 04:50:19;;;;;;;20.05;14.20;;;;;;;16.92;100.00;92564.63;5071040;28;20117;-80
2021/08/29 04:52:46;;;;;;;20.80;15.57;;;;;;;16.72;100.00;92536.94;5070916;28;20048;-80
2021/08/29 04:55:14;;;;;;;17.15;14.20;;;;;;;16.79;100.00;92542.63;5070673;28;20067;-81
2021/08/29 04:57:41;;;;;;;15.27;13.63;;;;;;;16.44;100.00;92545.06;5070733;28;20048;-80
2021/08/29 05:00:09;;;;;;;16.60;14.93;;;;;;;16.27;100.00;92527.97;5070639;28;20109;-80
2021/08/29 05:02:36;;;;;;;16.25;14.35;;;;;;;16.40;100.00;92536.25;5070468;28;20523;-80
2021/08/29 05:05:02;;;;;;;19.75;15.77;;;;;;;16.43;100.00;92530.53;5070253;28;20105;-80
2021/08/29 05:07:29;;;;;;;17.40;14.68;;;;;;;16.47;100.00;92525.63;5070397;28;20053;-83
2021/08/29 05:09:56;;;;;;;17.77;15.57;;;;;;;16.32;100.00;92503.06;5070448;28;20044;-83
2021/08/29 05:12:24;;;;;;;19.80;16.02;;;;;;;16.49;100.00;92519.13;5069896;28;20052;-83
2021/08/29 05:14:51;;;;;;;18.33;16.33;;;;;;;16.47;100.00;92507.47;5070294;28;20418;-82
2021/08/29 05:17:18;;;;;;;16.70;14.07;;;;;;;16.51;100.00;92493.72;5070184;28;20516;-83
2021/08/29 05:19:44;;;;;;;16.98;14.38;;;;;;;16.81;100.00;92525.00;5070291;28;20457;-82
2021/08/29 05:22:11;;;;;;;18.27;15.52;;;;;;;16.73;100.00;92528.13;5069917;28;20044;-82
2021/08/29 05:24:38;;;;;;;18.33;16.42;;;;;;;16.39;100.00;92514.72;5069849;28;20049;-81
2021/08/29 05:27:05;;;;;;;18.10;15.32;;;;;;;16.61;100.00;92523.25;5070248;28;20551;-81
2021/08/29 05:29:33;;;;;;;17.52;15.73;;;;;;;16.45;100.00;92512.13;5069784;28;20045;-82
2021/08/29 05:32:00;;;;;;;19.55;17.48;;;;;;;16.32;100.00;92497.91;5070081;28;20052;-81
2021/08/29 05:34:26;;;;;;;19.60;16.80;;;;;;;16.56;100.00;92531.78;5060709;28;20133;-82
2021/08/29 05:36:53;;;;;;;21.20;17.10;;;;;;;16.66;100.00;92526.59;5070138;28;20056;-82
2021/08/29 05:39:20;;;;;;;21.48;17.38;;;;;;;16.69;100.00;92525.28;5070597;28;20113;-82
2021/08/29 05:41:47;;;;;;;19.20;15.40;;;;;;;16.84;100.00;92547.78;5070522;28;20056;-82
2021/08/29 05:44:14;;;;;;;17.27;14.52;;;;;;;16.97;100.00;92538.69;5070319;28;20052;-83
2021/08/29 05:46:42;;;;;;;18.05;15.25;;;;;;;16.87;100.00;92518.75;5070471;28;20347;-83
2021/08/29 05:49:09;;;;;;;17.35;15.43;;;;;;;16.85;100.00;92509.69;5069892;28;20110;-83
2021/08/29 05:51:36;;;;;;;19.58;15.77;;;;;;;17.03;100.00;92524.66;5070105;28;20056;-82
2021/08/29 05:54:03;;;;;;;19.83;16.10;;;;;;;17.15;100.00;92521.75;5070160;28;20109;-82
2021/08/29 05:56:30;;;;;;;16.52;14.73;;;;;;;17.28;100.00;92532.59;5070092;28;20056;-82
2021/08/29 05:58:57;;;;;;;19.00;14.65;;;;;;;17.12;100.00;92503.38;5069448;28;20048;-84
2021/08/29 06:01:23;;;;;;;18.98;14.32;;;;;;;17.21;100.00;92505.13;5069604;28;20450;-84
2021/08/29 06:03:52;;;;;;;20.83;16.10;;;;;;;17.49;100.00;92525.47;5069432;28;20090;-83
2021/08/29 06:06:18;;;;;;;17.13;14.52;;;;;;;17.38;100.00;92506.59;5069292;28;20048;-85
2021/08/29 06:08:45;;;;;;;16.30;13.70;;;;;;;17.41;100.00;92511.22;5069449;28;20048;-84
2021/08/29 06:11:12;;;;;;;17.92;14.70;;;;;;;17.66;100.00;92524.31;5069350;28;20053;-82
2021/08/29 06:13:39;;;;;;;14.90;12.95;;;;;;;17.70;100.00;92533.13;5069462;28;20049;-82
2021/08/29 06:16:06;;;;;;;14.85;11.70;;;;;;;17.74;100.00;92518.56;5069465;28;20487;-82
2021/08/29 06:18:33;;;;;;;14.43;12.07;;;;;;;17.86;100.00;92528.59;5069117;28;20086;-83
2021/08/29 06:21:01;;;;;;;14.35;12.55;;;;;;;17.94;100.00;92532.44;5068894;28;20044;-82
2021/08/29 06:23:28;;;;;;;15.45;12.95;;;;;;;17.67;100.00;92523.28;5070026;28;20121;-83
2021/08/29 06:25:55;;;;;;;15.95;13.77;;;;;;;17.48;100.00;92535.09;5069517;28;20052;-81
2021/08/29 06:28:21;;;;;;;16.40;14.50;;;;;;;17.44;100.00;92523.69;5065013;28;20056;-82
2021/08/29 06:30:48;;;;;;;15.88;14.18;;;;;;;17.58;100.00;92528.25;5067941;28;20060;-81
2021/08/29 06:33:15;;;;;;;16.73;14.27;;;;;;;17.72;100.00;92534.41;5069514;28;20090;-82
2021/08/29 06:35:41;;;;;;;21.85;14.75;;;;;;;17.90;100.00;92529.59;5069738;28;20048;-82
2021/08/29 06:38:10;;;;;;;18.10;14.52;;;;;;;17.81;100.00;92526.06;5069527;28;20049;-82
2021/08/29 06:40:36;;;;;;;16.42;14.00;;;;;;;17.94;100.00;92546.22;5068709;28;20090;-81
2021/08/29 06:43:03;;;;;;;18.08;15.13;;;;;;;17.39;100.00;92510.72;5069277;28;20045;-81
2021/08/29 06:45:30;;;;;;;16.67;14.80;;;;;;;17.40;100.00;92540.84;5068939;28;20052;-81
2021/08/29 06:47:57;;;;;;;18.33;16.20;;;;;;;17.22;100.00;92519.66;5069167;28;20105;-82
2021/08/29 06:50:24;;;;;;;19.65;16.55;;;;;;;17.27;100.00;92539.59;5069350;28;20052;-81
2021/08/29 06:52:50;;;;;;;19.20;16.48;;;;;;;17.24;100.00;92545.34;5068794;28;20488;-81
2021/08/29 06:55:19;;;;;;;19.90;16.42;;;;;;;17.12;100.00;92552.66;5069817;28;20049;-82
2021/08/29 06:57:45;;;;;;;19.63;17.00;;;;;;;16.89;100.00;92547.78;5069244;28;20056;-82
2021/08/29 07:00:13;;;;;;;19.08;16.95;;;;;;;16.98;100.00;92557.63;5069283;28;20052;-81
2021/08/29 07:02:39;;;;;;;20.10;16.88;;;;;;;17.12;100.00;92543.03;5069534;28;20110;-81
2021/08/29 07:05:06;;;;;;;19.95;16.52;;;;;;;17.47;100.00;92545.72;5069524;28;20453;-81
2021/08/29 07:07:33;;;;;;;18.25;16.08;;;;;;;17.59;100.00;92540.97;5068738;28;20106;-81
2021/08/29 07:10:00;;;;;;;22.88;16.00;;;;;;;17.68;100.00;92533.38;5068816;28;20045;-82
2021/08/29 07:12:28;;;;;;;17.60;15.73;;;;;;;17.74;100.00;92521.16;5068797;28;20057;-81
2021/08/29 07:14:55;;;;;;;18.83;16.08;;;;;;;17.99;100.00;92520.19;5069019;28;20465;-81
2021/08/29 07:17:22;;;;;;;18.55;15.05;;;;;;;18.10;100.00;92548.72;5068870;28;20044;-81
2021/08/29 07:19:49;;;;;;;17.92;14.30;;;;;;;18.26;100.00;92542.34;5068530;28;20801;-81
2021/08/29 07:22:15;;;;;;;19.88;15.73;;;;;;;18.39;100.00;92548.72;5068478;28;20095;-80
2021/08/29 07:24:42;;;;;;;19.02;15.23;;;;;;;18.64;100.00;92533.13;5068404;28;20048;-81
2021/08/29 07:27:09;;;;;;;16.13;14.25;;;;;;;18.84;100.00;92537.34;5068764;28;20048;-81
2021/08/29 07:29:37;;;;;;;20.33;14.70;;;;;;;18.93;100.00;92547.94;5068755;28;20095;-81
2021/08/29 07:32:05;;;;;;;18.90;15.25;;;;;;;18.90;100.00;92533.66;5070684;28;20094;-81
2021/08/29 07:34:31;;;;;;;19.83;14.48;;;;;;;18.57;100.00;92554.28;5072052;28;20044;-81
2021/08/29 07:36:58;;;;;;;19.65;15.02;;;;;;;18.43;100.00;92515.91;5071998;28;20046;-81
2021/08/29 07:39:25;;;;;;;23.02;17.27;;;;;;;18.41;100.00;92541.44;5072138;28;20052;-81
2021/08/29 07:41:51;;;;;;;19.75;15.40;;;;;;;18.89;100.00;92550.28;5071988;28;20412;-81
2021/08/29 07:44:18;;;;;;;21.20;15.60;;;;;;;18.80;100.00;92546.78;5071844;28;20531;-81
2021/08/29 07:46:46;;;;;;;20.48;14.93;;;;;;;18.93;100.00;92543.47;5071651;28;20052;-81
2021/08/29 07:49:13;;;;;;;18.92;15.15;;;;;;;18.79;100.00;92540.78;5071858;28;20449;-81
2021/08/29 07:51:40;;;;;;;19.77;14.68;;;;;;;19.05;100.00;92545.72;5071979;28;20049;-81
2021/08/29 07:54:06;;;;;;;20.95;15.15;;;;;;;19.15;100.00;92537.00;5071965;28;20556;-81
2021/08/29 07:56:33;;;;;;;22.42;15.45;;;;;;;18.77;100.00;92545.50;5071496;28;20041;-81
2021/08/29 07:59:00;;;;;;;18.58;14.43;;;;;;;18.50;100.00;92523.41;5071582;28;20049;-81
2021/08/29 08:01:27;;;;;;;21.13;14.70;;;;;;;18.87;100.00;92518.56;5071651;28;20048;-80
2021/08/29 08:03:55;;;;;;;16.38;12.65;;;;;;;18.83;100.00;92536.56;5071311;28;20102;-80
2021/08/29 08:06:22;;;;;;;20.40;13.80;;;;;;;19.20;100.00;92528.34;5071468;28;20114;-80
2021/08/29 08:08:48;;;;;;;15.70;12.40;;;;;;;18.87;100.00;92546.41;5071306;28;20118;-80
2021/08/29 08:11:15;;;;;;;16.60;13.50;;;;;;;19.00;100.00;92542.38;5071534;28;20102;-80
2021/08/29 08:13:42;;;;;;;19.05;13.02;;;;;;;18.72;100.00;92526.53;5071562;28;20094;-80
2021/08/29 08:16:09;;;;;;;20.45;15.98;;;;;;;18.65;100.00;92532.09;5071253;28;20858;-81
2021/08/29 08:18:36;;;;;;;20.63;15.60;;;;;;;18.81;100.00;92525.69;5071201;28;20056;-82
2021/08/29 08:21:04;;;;;;;19.10;15.43;;;;;;;19.17;100.00;92534.13;5071539;28;20048;-81
2021/08/29 08:23:31;;;;;;;21.13;15.15;;;;;;;19.00;100.00;92531.97;5070934;28;20098;-81
2021/08/29 08:25:58;;;;;;;17.17;13.35;;;;;;;18.68;100.00;92540.13;5071104;28;20408;-81
2021/08/29 08:28:24;;;;;;;16.52;12.68;;;;;;;18.92;100.00;92541.16;5070830;28;20045;-81
2021/08/29 08:30:51;;;;;;;15.68;11.70;;;;;;;18.87;100.00;92526.38;5067388;28;20396;-81
2021/08/29 08:33:18;;;;;;;16.52;12.75;;;;;;;18.94;100.00;92534.63;5071201;28;20045;-81
2021/08/29 08:35:44;;;;;;;15.80;12.40;;;;;;;19.25;100.00;92530.91;5070787;28;20578;-81
2021/08/29 08:38:13;;;;;;;15.60;11.93;;;;;;;18.87;100.00;92518.56;5070660;28;20495;-81
2021/08/29 08:40:42;;;;;;;14.82;11.43;;;;;;;19.15;100.00;92533.63;5070861;28;20060;-81
2021/08/29 08:43:10;;;;;;;18.67;12.73;;;;;;;19.36;100.00;92498.47;5070334;28;20048;-81
2021/08/29 08:45:37;;;;;;;15.00;11.60;;;;;;;19.63;100.00;92533.50;5070769;28;20048;-81
2021/08/29 08:48:05;;;;;;;15.88;11.45;;;;;;;19.53;100.00;92519.88;5070533;28;20041;-81
2021/08/29 08:50:34;;;;;;;15.00;11.40;;;;;;;19.17;100.00;92501.06;5071237;28;20052;-81
2021/08/29 08:53:02;;;;;;;14.00;11.15;;;;;;;19.61;100.00;92520.00;5071428;28;20139;-81
2021/08/29 08:55:31;;;;;;;16.45;11.38;;;;;;;19.90;100.00;92524.25;5070855;28;20118;-81
2021/08/29 08:57:58;;;;;;;15.98;11.23;;;;;;;20.08;100.00;92529.75;5070526;28;20048;-81
2021/08/29 09:00:25;;;;;;;13.90;12.02;;;;;;;20.11;100.00;92517.97;5066541;28;20070;-81
2021/08/29 09:02:53;;;;;;;15.80;11.85;;;;;;;20.17;100.00;92524.66;5067625;28;20052;-81
2021/08/29 09:05:20;;;;;;;16.67;12.15;;;;;;;20.04;100.00;92497.47;5070115;28;20491;-81
2021/08/29 09:07:47;;;;;;;17.52;11.02;;;;;;;19.96;100.00;92517.19;5070526;28;20045;-81
2021/08/29 09:10:14;;;;;;;15.27;11.25;;;;;;;19.95;100.00;92512.97;5070100;28;20052;-80
2021/08/29 09:12:57;;;;;;;15.77;11.25;;;;;;;20.15;100.00;92518.97;5069865;28;20496;-81
2021/08/29 09:15:24;;;;;;;18.10;11.93;;;;;;;20.26;100.00;92490.88;5070172;28;20553;-81
2021/08/29 09:17:51;;;;;;;15.55;12.30;;;;;;;20.16;100.00;92529.09;5069912;28;20113;-81
2021/08/29 09:20:21;;;;;;;16.52;13.00;;;;;;;20.25;100.00;92524.00;5070385;28;20048;-81
2021/08/29 09:22:52;;;;;;;29.45;17.77;;;;;;;20.47;100.00;92519.19;5069844;28;20048;-81
2021/08/29 09:25:20;;;;;;;18.90;13.40;;;;;;;20.45;100.00;92514.28;5070108;28;20088;-81
2021/08/29 09:27:49;;;;;;;15.15;11.18;;;;;;;20.35;100.00;92493.56;5069927;28;20049;-81
2021/08/29 09:30:18;;;;;;;17.20;12.80;;;;;;;20.59;100.00;92523.97;5070083;28;20049;-81
2021/08/29 09:32:51;;;;;;;16.40;11.82;;;;;;;20.68;100.00;92520.38;5069711;28;20049;-81
2021/08/29 09:35:18;;;;;;;16.77;11.93;;;;;;;19.86;100.00;92486.03;5069837;28;20090;-81
2021/08/29 09:37:45;;;;;;;19.27;12.45;;;;;;;19.93;100.00;92509.88;5070497;28;20056;-80
2021/08/29 09:40:21;;;;;;;21.17;12.95;;;;;;;19.56;100.00;92508.88;5070351;28;20052;-81
2021/08/29 09:42:49;;;;;;;;;;;;;;;19.87;100.00;92513.63;5070066;28;20044;-81
2021/08/29 09:45:28;;;;;;;15.35;12.45;;;;;;;20.18;100.00;92515.75;5069591;28;19962;-82
2021/08/29 09:47:59;;;;;;;21.05;13.68;;;;;;;20.37;100.00;92507.13;5070130;28;20055;-81
2021/08/29 09:50:26;;;;;;;15.00;11.57;;;;;;;20.55;100.00;92515.94;5069819;28;20076;-81
2021/08/29 09:53:05;;;;;;;18.42;12.60;;;;;;;20.08;100.00;92508.91;5069467;28;20049;-81
2021/08/29 09:55:33;;;;;;;13.27;11.60;;;;;;;20.32;100.00;92525.47;5068477;28;20487;-81
2021/08/29 09:58:00;;;;;;;14.98;11.60;;;;;;;19.96;100.00;92491.13;5069726;28;20161;-81
2021/08/29 10:00:28;;;;;;;14.70;10.85;;;;;;;20.02;100.00;92510.03;5069058;28;20044;-81
2021/08/29 10:03:03;;;;;;;13.60;10.38;;;;;;;20.06;100.00;92508.41;5069185;28;20052;-81
2021/08/29 10:05:29;;;;;;;15.85;10.98;;;;;;;20.02;100.00;92512.66;5068920;28;20140;-81
2021/08/29 10:08:09;;;;;;;14.27;11.48;;;;;;;20.10;100.00;92490.38;5069264;28;20579;-82
2021/08/29 10:10:38;;;;;;;16.50;11.65;;;;;;;20.16;100.00;92484.78;5069128;28;20052;-81
2021/08/29 10:13:06;;;;;;;14.30;10.85;;;;;;;20.05;100.00;92511.31;5069524;28;20044;-81
2021/08/29 10:15:37;;;;;;;16.92;12.07;;;;;;;20.16;100.00;92500.44;5069984;28;20391;-82
2021/08/29 10:18:04;;;;;;;17.50;12.13;;;;;;;19.76;100.00;92498.16;5069984;28;20051;-82
2021/08/29 10:20:33;;;;;;;14.38;10.93;;;;;;;19.98;100.00;92520.25;5069025;28;20521;-81
2021/08/29 10:23:00;;;;;;;19.55;12.18;;;;;;;19.99;100.00;92477.50;5069126;28;20674;-81
2021/08/29 10:25:28;;;;;;;14.35;11.50;;;;;;;20.73;100.00;92495.25;5069042;28;20487;-82
2021/08/29 10:28:05;;;;;;;14.20;11.07;;;;;;;20.90;100.00;92481.63;5069447;28;20045;-81
2021/08/29 10:30:33;;;;;;;17.65;10.93;;;;;;;21.44;100.00;92483.66;5069084;28;20143;-82
2021/08/29 10:33:04;;;;;;;14.90;11.45;;;;;;;21.13;100.00;92466.81;5063646;28;20044;-82
2021/08/29 10:35:31;;;;;;;14.88;11.98;;;;;;;20.81;100.00;92499.78;5066900;28;20056;-81
2021/08/29 10:37:58;;;;;;;15.25;11.60;;;;;;;21.52;100.00;92490.78;5068916;28;20441;-81
2021/08/29 10:40:27;;;;;;;14.10;11.02;;;;;;;21.63;98.87;92489.47;5069451;28;20440;-81
2021/08/29 10:42:56;;;;;;;13.57;11.75;;;;;;;21.41;99.88;92489.47;5069133;28;20098;-81
2021/08/29 10:45:23;;;;;;;24.08;12.15;;;;;;;21.85;100.00;92467.06;5069227;28;20482;-81
2021/08/29 10:47:51;;;;;;;15.07;11.95;;;;;;;22.48;99.53;92473.34;5069004;28;20110;-81
2021/08/29 10:50:20;;;;;;;15.52;11.50;;;;;;;23.03;97.44;92482.63;5069217;28;20102;-81
2021/08/29 10:52:47;;;;;;;13.73;10.57;;;;;;;22.85;93.17;92483.69;5069382;28;20070;-82
2021/08/29 10:55:18;;;;;;;20.25;10.27;;;;;;;23.27;94.34;92485.91;5069224;28;20052;-81
2021/08/29 10:57:46;;;;;;;17.20;11.32;;;;;;;23.56;92.15;92485.31;5069080;28;20060;-81
2021/08/29 11:00:17;;;;;;;13.77;10.77;;;;;;;23.75;89.55;92479.00;5068969;28;20710;-80
2021/08/29 11:02:45;;;;;;;13.45;10.50;;;;;;;23.69;90.21;92485.50;5069345;28;20084;-80
2021/08/29 11:05:15;;;;;;;14.20;10.68;;;;;;;23.95;90.08;92477.59;5069533;28;20098;-81
2021/08/29 11:07:53;;;;;;;14.10;10.93;;;;;;;23.44;91.40;92477.31;5072705;28;20048;-81
2021/08/29 11:10:45;;;;;;;15.27;10.95;;;;;;;23.66;91.35;92476.41;5072694;28;20080;-80
2021/08/29 11:13:39;;;;;;;16.02;11.05;;;;;;;23.80;90.47;92472.81;5072555;28;20048;-81